createdAt,value
2018-11-26T00:01:35.320Z,22.53
2018-11-26T00:04:07.003Z,23.93
2018-11-26T00:06:36.365Z,22.80
2018-11-26T00:09:06.887Z,25.20
2018-11-26T00:11:37.424Z,20.03
2018-11-26T00:14:06.975Z,21.97
2018-11-26T00:16:36.339Z,24.17
2018-11-26T00:19:05.950Z,22.42
2018-11-26T00:21:35.408Z,21.13
2018-11-26T00:24:04.810Z,21.07
2018-11-26T00:26:34.180Z,21.87
2018-11-26T00:29:03.493Z,22.93
2018-11-26T00:31:32.815Z,24.00
2018-11-26T00:34:02.219Z,22.73
2018-11-26T00:36:31.559Z,24.03
2018-11-26T00:39:00.902Z,22.43
2018-11-26T00:41:30.291Z,19.95
2018-11-26T00:43:59.689Z,22.63
2018-11-26T00:46:29.065Z,20.57
2018-11-26T00:48:58.457Z,20.67
2018-11-26T00:51:27.779Z,21.23
2018-11-26T00:53:57.126Z,19.83
2018-11-26T00:56:26.528Z,17.45
2018-11-26T00:58:55.874Z,20.77
2018-11-26T01:01:25.243Z,18.30
2018-11-26T01:03:54.571Z,18.83
2018-11-26T01:06:23.931Z,18.57
2018-11-26T01:08:53.311Z,19.60
2018-11-26T01:11:22.680Z,18.73
2018-11-26T01:13:52.376Z,15.88
2018-11-26T01:16:21.917Z,17.40
2018-11-26T01:18:51.241Z,19.50
2018-11-26T01:21:20.662Z,18.37
2018-11-26T01:23:49.990Z,21.20
2018-11-26T01:26:20.588Z,21.65
2018-11-26T01:28:49.891Z,23.23
2018-11-26T01:31:19.230Z,21.73
2018-11-26T01:33:48.531Z,22.37
2018-11-26T01:36:17.841Z,20.23
2018-11-26T01:38:47.198Z,18.70
2018-11-26T01:41:16.504Z,19.83
2018-11-26T01:43:45.867Z,20.83
2018-11-26T01:46:15.288Z,20.23
2018-11-26T01:48:44.610Z,21.57
2018-11-26T01:51:13.939Z,20.73
2018-11-26T01:53:43.321Z,24.00
2018-11-26T01:56:12.656Z,20.83
2018-11-26T01:58:42.042Z,22.97
2018-11-26T02:01:11.365Z,20.43
2018-11-26T02:03:40.725Z,19.37
2018-11-26T02:06:10.405Z,20.13
2018-11-26T02:08:39.753Z,18.97
2018-11-26T02:11:09.110Z,18.13
2018-11-26T02:13:38.444Z,19.23
2018-11-26T02:16:07.796Z,17.67
2018-11-26T02:18:37.182Z,19.00
2018-11-26T02:21:06.574Z,16.90
2018-11-26T02:23:35.907Z,18.73
2018-11-26T02:26:05.394Z,17.97
2018-11-26T02:28:34.726Z,16.70
2018-11-26T02:31:04.085Z,18.20
2018-11-26T02:33:33.398Z,18.27
2018-11-26T02:36:02.775Z,19.80
2018-11-26T02:38:32.195Z,18.27
2018-11-26T02:41:01.550Z,20.00
2018-11-26T02:43:30.924Z,17.40
2018-11-26T02:46:00.310Z,17.40
2018-11-26T02:48:29.923Z,18.53
2018-11-26T02:50:59.286Z,20.90
2018-11-26T02:53:28.643Z,17.03
2018-11-26T02:55:58.005Z,19.10
2018-11-26T02:58:27.393Z,18.00
2018-11-26T03:00:56.764Z,19.13
2018-11-26T03:03:26.096Z,19.70
2018-11-26T03:05:55.455Z,21.70
2018-11-26T03:08:24.840Z,21.77
2018-11-26T03:10:54.212Z,21.03
2018-11-26T03:13:23.647Z,21.52
2018-11-26T03:15:52.966Z,22.93
2018-11-26T03:18:22.330Z,25.50
2018-11-26T03:20:51.669Z,21.73
2018-11-26T03:23:21.030Z,22.80
2018-11-26T03:25:50.442Z,21.57
2018-11-26T03:28:19.791Z,23.33
2018-11-26T03:30:49.143Z,26.47
2018-11-26T03:33:18.525Z,26.93
2018-11-26T03:35:47.882Z,25.88
2018-11-26T03:38:28.108Z,22.93
2018-11-26T03:40:57.468Z,22.90
2018-11-26T03:43:26.852Z,22.23
2018-11-26T03:45:56.255Z,22.10
2018-11-26T03:48:25.634Z,25.57
2018-11-26T03:50:54.973Z,23.40
2018-11-26T03:53:24.300Z,21.47
2018-11-26T03:55:54.328Z,24.07
2018-11-26T03:58:23.756Z,22.50
2018-11-26T04:00:54.057Z,23.93
2018-11-26T04:03:23.392Z,25.88
2018-11-26T04:05:52.713Z,25.67
2018-11-26T04:08:22.038Z,27.52
2018-11-26T04:10:52.041Z,23.30
2018-11-26T04:13:21.416Z,20.47
2018-11-26T04:15:50.770Z,20.03
2018-11-26T04:18:20.118Z,19.87
2018-11-26T04:20:49.513Z,17.47
2018-11-26T04:23:20.115Z,21.27
2018-11-26T04:25:54.673Z,18.97
2018-11-26T04:28:24.019Z,16.47
2018-11-26T04:30:53.432Z,16.60
2018-11-26T04:33:22.804Z,16.33
2018-11-26T04:35:52.130Z,18.77
2018-11-26T04:38:21.700Z,16.20
2018-11-26T04:40:51.287Z,15.10
2018-11-26T04:43:20.635Z,16.30
2018-11-26T04:45:50.277Z,15.07
2018-11-26T04:48:19.589Z,17.90
2018-11-26T04:50:48.919Z,14.30
2018-11-26T04:53:18.299Z,15.20
2018-11-26T04:55:47.676Z,14.77
2018-11-26T04:58:17.022Z,11.00
2018-11-26T05:00:46.374Z,10.30
2018-11-26T05:03:15.724Z,11.33
2018-11-26T05:05:45.091Z,10.20
2018-11-26T05:08:14.411Z,9.17
2018-11-26T05:10:43.726Z,9.70
2018-11-26T05:13:13.114Z,10.00
2018-11-26T05:15:42.482Z,10.77
2018-11-26T05:18:11.843Z,11.13
2018-11-26T05:20:41.260Z,11.00
2018-11-26T05:23:10.601Z,10.08
2018-11-26T05:25:39.982Z,10.10
2018-11-26T05:28:09.353Z,10.60
2018-11-26T05:30:38.750Z,10.33
2018-11-26T05:33:08.095Z,13.80
2018-11-26T05:35:37.463Z,9.97
2018-11-26T05:38:06.811Z,10.47
2018-11-26T05:40:36.299Z,11.83
2018-11-26T05:43:06.060Z,9.67
2018-11-26T05:45:35.400Z,12.33
2018-11-26T05:48:04.807Z,10.47
2018-11-26T05:50:34.150Z,13.37
2018-11-26T05:53:03.474Z,11.70
2018-11-26T05:55:32.823Z,12.00
2018-11-26T05:58:02.170Z,12.83
2018-11-26T06:00:33.337Z,12.47
2018-11-26T06:03:02.872Z,12.23
2018-11-26T06:05:32.612Z,12.43
2018-11-26T06:08:01.938Z,13.10
2018-11-26T06:10:31.482Z,12.27
2018-11-26T06:13:00.818Z,12.40
2018-11-26T06:15:30.161Z,12.33
2018-11-26T06:18:00.874Z,11.63
2018-11-26T06:20:30.183Z,12.30
2018-11-26T06:22:59.546Z,11.97
2018-11-26T06:25:28.926Z,12.80
2018-11-26T06:27:58.258Z,12.37
2018-11-26T06:30:28.831Z,14.55
2018-11-26T06:32:58.159Z,13.80
2018-11-26T06:35:27.498Z,13.07
2018-11-26T06:37:56.843Z,13.10
2018-11-26T06:40:26.205Z,10.90
2018-11-26T06:42:55.544Z,12.50
2018-11-26T06:45:24.863Z,11.40
2018-11-26T06:47:54.243Z,11.43
2018-11-26T06:50:23.674Z,11.17
2018-11-26T06:52:53.002Z,11.00
2018-11-26T06:55:22.871Z,10.53
2018-11-26T06:57:52.207Z,9.93
2018-11-26T07:00:21.855Z,9.58
2018-11-26T07:02:51.211Z,9.90
2018-11-26T07:05:21.834Z,8.77
2018-11-26T07:07:51.519Z,9.63
2018-11-26T07:10:21.630Z,7.63
2018-11-26T07:12:51.029Z,7.50
2018-11-26T07:15:21.628Z,7.63
2018-11-26T07:17:51.315Z,8.27
2018-11-26T07:20:21.742Z,6.93
2018-11-26T07:22:51.094Z,9.30
2018-11-26T07:25:21.493Z,8.57
2018-11-26T07:27:54.500Z,7.10
2018-11-26T07:30:26.598Z,7.53
2018-11-26T07:32:55.940Z,6.97
2018-11-26T07:35:26.499Z,6.43
2018-11-26T07:37:55.921Z,7.33
2018-11-26T07:40:25.230Z,8.53
2018-11-26T07:43:04.572Z,25.77
2018-11-26T07:45:33.904Z,24.52
2018-11-26T07:48:03.228Z,13.60
2018-11-26T07:50:32.543Z,9.33
2018-11-26T07:53:01.902Z,8.47
2018-11-26T07:55:31.248Z,8.43
2018-11-26T07:58:00.614Z,8.17
2018-11-26T08:00:30.011Z,9.17
2018-11-26T08:02:59.343Z,7.80
2018-11-26T08:05:28.720Z,9.53
2018-11-26T08:07:58.071Z,8.00
2018-11-26T08:10:27.674Z,8.27
2018-11-26T08:12:57.019Z,8.97
2018-11-26T08:15:28.760Z,8.05
2018-11-26T08:18:00.910Z,7.70
2018-11-26T08:20:30.275Z,7.43
2018-11-26T08:22:59.592Z,7.43
2018-11-26T08:25:28.948Z,6.93
2018-11-26T08:27:58.290Z,7.47
2018-11-26T08:30:28.159Z,8.33
2018-11-26T08:33:00.943Z,7.80
2018-11-26T08:35:30.965Z,7.80
2018-11-26T08:38:05.380Z,9.10
2018-11-26T08:40:39.799Z,8.23
2018-11-26T08:43:14.386Z,7.13
2018-11-26T08:45:52.463Z,10.23
2018-11-26T08:48:29.834Z,11.93
2018-11-26T08:51:01.497Z,8.07
2018-11-26T08:53:31.227Z,7.67
2018-11-26T08:56:00.578Z,9.13
2018-11-26T08:58:30.595Z,7.95
2018-11-26T09:01:03.979Z,10.43
2018-11-26T09:03:36.597Z,7.67
2018-11-26T09:06:06.258Z,7.03
2018-11-26T09:08:37.774Z,8.50
2018-11-26T09:11:09.550Z,8.30
2018-11-26T09:13:38.902Z,8.03
2018-11-26T09:16:08.219Z,8.33
2018-11-26T09:18:44.192Z,7.37
2018-11-26T09:21:13.507Z,10.60
2018-11-26T09:23:42.846Z,8.23
2018-11-26T09:26:12.196Z,9.37
2018-11-26T09:28:41.633Z,9.10
2018-11-26T09:31:11.619Z,11.65
2018-11-26T09:33:40.974Z,9.23
2018-11-26T09:36:10.319Z,10.23
2018-11-26T09:38:39.738Z,8.37
2018-11-26T09:41:09.068Z,8.77
2018-11-26T09:43:39.685Z,7.97
2018-11-26T09:46:09.044Z,11.27
2018-11-26T09:48:38.358Z,12.53
2018-11-26T09:51:14.106Z,10.67
2018-11-26T09:53:37.048Z,15.58
2018-11-26T09:56:06.439Z,9.10
2018-11-26T09:58:35.750Z,9.27
2018-11-26T10:01:05.994Z,8.80
2018-11-26T10:03:35.337Z,7.28
2018-11-26T10:06:05.095Z,7.77
2018-11-26T10:08:35.132Z,7.67
2018-11-26T10:11:04.483Z,5.30
2018-11-26T10:13:33.822Z,6.10
2018-11-26T10:16:03.138Z,12.07
2018-11-26T10:18:32.419Z,8.37
2018-11-26T10:25:59.708Z,5.83
2018-11-26T10:28:29.084Z,6.00
2018-11-26T10:30:58.429Z,5.13
2018-11-26T10:33:27.767Z,6.37
2018-11-26T10:35:57.135Z,4.75
2018-11-26T10:38:26.546Z,4.40
2018-11-26T10:40:55.928Z,4.55
2018-11-26T10:43:25.867Z,6.00
2018-11-26T10:45:55.218Z,3.93
2018-11-26T10:48:24.742Z,5.47
2018-11-26T10:50:54.152Z,4.62
2018-11-26T10:53:23.496Z,4.77
2018-11-26T10:55:53.830Z,3.33
2018-11-26T10:58:23.214Z,3.77
2018-11-26T11:00:58.497Z,4.00
2018-11-26T11:03:27.856Z,4.43
2018-11-26T11:05:57.199Z,3.37
2018-11-26T11:08:26.551Z,3.47
2018-11-26T11:10:55.903Z,4.13
2018-11-26T11:13:25.298Z,3.57
2018-11-26T11:15:54.666Z,3.60
2018-11-26T11:18:24.067Z,2.70
2018-11-26T11:20:53.446Z,3.83
2018-11-26T11:23:22.796Z,3.33
2018-11-26T11:25:52.123Z,2.97
2018-11-26T11:28:21.432Z,2.20
2018-11-26T11:30:50.773Z,2.40
2018-11-26T11:35:48.525Z,2.87
2018-11-26T11:38:17.858Z,3.03
2018-11-26T11:40:47.192Z,2.75
2018-11-26T11:43:16.510Z,2.30
2018-11-26T11:45:45.829Z,2.30
2018-11-26T11:48:15.149Z,2.80
2018-11-26T11:50:44.489Z,2.67
2018-11-26T11:53:13.817Z,3.00
2018-11-26T11:55:43.143Z,3.17
2018-11-26T11:58:12.584Z,2.13
2018-11-26T12:00:43.364Z,2.90
2018-11-26T12:03:16.530Z,3.20
2018-11-26T12:05:45.908Z,2.47
2018-11-26T12:08:15.572Z,2.98
2018-11-26T12:10:44.908Z,2.13
2018-11-26T12:13:16.101Z,2.40
2018-11-26T12:15:52.952Z,3.50
2018-11-26T12:18:22.556Z,2.75
2018-11-26T12:20:51.942Z,2.43
2018-11-26T12:23:21.255Z,3.10
2018-11-26T12:25:50.619Z,2.77
2018-11-26T12:28:19.982Z,2.40
2018-11-26T12:30:50.565Z,3.00
2018-11-26T12:33:19.922Z,2.73
2018-11-26T12:35:49.241Z,2.40
2018-11-26T12:38:18.594Z,3.03
2018-11-26T12:40:47.991Z,3.17
2018-11-26T12:43:17.331Z,2.30
2018-11-26T12:45:46.763Z,2.80
2018-11-26T12:48:16.088Z,2.20
2018-11-26T12:50:45.422Z,3.00
2018-11-26T12:53:14.773Z,2.72
2018-11-26T12:55:44.101Z,2.50
2018-11-26T12:58:13.456Z,2.55
2018-11-26T13:00:42.830Z,2.30
2018-11-26T13:03:14.206Z,2.50
2018-11-26T13:05:43.587Z,3.73
2018-11-26T13:08:12.920Z,3.10
2018-11-26T13:10:42.301Z,2.60
2018-11-26T13:13:11.954Z,2.80
2018-11-26T13:15:41.282Z,2.70
2018-11-26T13:18:10.644Z,3.60
2018-11-26T13:20:41.004Z,3.55
2018-11-26T13:23:10.856Z,3.40
2018-11-26T13:25:42.095Z,3.10
2018-11-26T13:28:10.668Z,2.63
2018-11-26T13:30:44.336Z,2.50
2018-11-26T13:33:17.417Z,3.10
2018-11-26T13:35:48.008Z,2.77
2018-11-26T13:38:17.339Z,2.63
2018-11-26T13:40:46.721Z,2.30
2018-11-26T13:43:18.555Z,2.92
2018-11-26T13:45:49.945Z,2.87
2018-11-26T13:48:20.272Z,2.60
2018-11-26T13:50:55.499Z,2.60
2018-11-26T13:53:25.148Z,2.93
2018-11-26T13:55:54.208Z,3.00
2018-11-26T13:58:23.590Z,2.50
2018-11-26T14:00:52.922Z,2.40
2018-11-26T14:03:22.375Z,2.90
2018-11-26T14:05:52.570Z,2.02
2018-11-26T14:08:21.891Z,2.40
2018-11-26T14:10:51.240Z,2.53
2018-11-26T14:13:20.601Z,2.60
2018-11-26T14:15:50.346Z,2.70
2018-11-26T14:18:21.437Z,2.87
2018-11-26T14:20:50.780Z,2.40
2018-11-26T14:23:20.076Z,2.90
2018-11-26T14:25:49.420Z,2.70
2018-11-26T14:28:18.772Z,3.87
2018-11-26T14:30:48.778Z,2.75
2018-11-26T14:33:18.139Z,3.30
2018-11-26T14:35:47.456Z,2.70
2018-11-26T14:38:16.853Z,3.00
2018-11-26T14:40:50.157Z,3.93
2018-11-26T14:43:19.501Z,3.23
2018-11-26T14:45:48.852Z,2.70
2018-11-26T14:48:18.180Z,3.00
2018-11-26T14:50:47.532Z,3.40
2018-11-26T14:53:17.904Z,3.22
2018-11-26T14:55:47.229Z,3.07
2018-11-26T14:58:16.560Z,3.40
2018-11-26T15:00:45.871Z,3.37
2018-11-26T15:03:15.200Z,3.47
2018-11-26T15:05:44.556Z,3.37
2018-11-26T15:08:13.928Z,6.17
2018-11-26T15:10:43.301Z,5.33
2018-11-26T15:13:12.690Z,4.47
2018-11-26T15:15:42.057Z,3.75
2018-11-26T15:18:11.462Z,3.83
2018-11-26T15:20:40.787Z,3.93
2018-11-26T15:23:10.113Z,4.30
2018-11-26T15:25:39.452Z,4.30
2018-11-26T15:28:11.845Z,4.83
2018-11-26T15:30:41.225Z,5.27
2018-11-26T15:33:10.604Z,5.22
2018-11-26T15:35:40.489Z,5.20
2018-11-26T15:38:09.993Z,5.70
2018-11-26T15:40:39.660Z,6.67
2018-11-26T15:43:08.803Z,4.72
2018-11-26T15:45:38.611Z,5.13
2018-11-26T15:48:11.139Z,5.00
2018-11-26T15:50:40.779Z,5.13
2018-11-26T15:53:10.690Z,5.03
2018-11-26T15:55:40.109Z,5.10
2018-11-26T15:58:10.279Z,4.70
2018-11-26T16:00:39.790Z,5.50
2018-11-26T16:03:09.327Z,5.80
2018-11-26T16:05:38.718Z,5.27
2018-11-26T16:08:10.360Z,5.60
2018-11-26T16:10:39.715Z,4.90
2018-11-26T16:13:10.728Z,5.90
2018-11-26T16:15:42.828Z,8.27
2018-11-26T16:18:16.588Z,11.97
2018-11-26T16:20:45.908Z,21.63
2018-11-26T16:23:15.269Z,10.67
2018-11-26T16:25:46.599Z,13.80
2018-11-26T16:28:23.009Z,10.77
2018-11-26T16:30:52.723Z,19.17
2018-11-26T16:33:22.097Z,15.73
2018-11-26T16:35:52.109Z,14.38
2018-11-26T16:38:21.452Z,14.10
2018-11-26T16:40:50.841Z,11.17
2018-11-26T16:43:20.221Z,9.95
2018-11-26T16:45:49.576Z,10.20
2018-11-26T16:48:19.957Z,9.75
2018-11-26T16:50:49.293Z,9.07
2018-11-26T16:53:19.456Z,11.50
2018-11-26T16:55:48.061Z,10.00
2018-11-26T16:58:17.545Z,9.60
2018-11-26T17:00:48.100Z,7.27
2018-11-26T17:03:17.459Z,8.10
2018-11-26T17:05:46.888Z,8.87
2018-11-26T17:08:16.697Z,13.80
2018-11-26T17:10:46.024Z,7.93
2018-11-26T17:13:23.356Z,7.50
2018-11-26T17:15:52.802Z,7.90
2018-11-26T17:18:22.391Z,7.47
2018-11-26T17:20:51.720Z,8.27
2018-11-26T17:23:21.062Z,7.00
2018-11-26T17:25:50.472Z,6.33
2018-11-26T17:28:21.044Z,7.50
2018-11-26T17:30:50.417Z,6.37
2018-11-26T17:33:19.862Z,8.25
2018-11-26T17:35:49.179Z,7.03
2018-11-26T17:38:18.516Z,9.68
2018-11-26T17:40:47.903Z,11.30
2018-11-26T17:43:17.251Z,13.93
2018-11-26T17:45:46.608Z,16.97
2018-11-26T17:48:15.989Z,12.57
2018-11-26T17:50:46.161Z,9.10
2018-11-26T17:53:20.886Z,7.65
2018-11-26T17:55:54.552Z,8.10
2018-11-26T17:58:27.529Z,8.07
2018-11-26T18:01:07.510Z,10.00
2018-11-26T18:03:36.861Z,14.00
2018-11-26T18:06:06.393Z,15.90
2018-11-26T18:08:35.746Z,13.20
2018-11-26T18:11:05.545Z,14.20
2018-11-26T18:13:34.889Z,14.83
2018-11-26T18:16:04.713Z,10.25
2018-11-26T18:18:34.075Z,7.63
2018-11-26T18:21:03.445Z,6.97
2018-11-26T18:23:32.812Z,4.93
2018-11-26T18:26:02.195Z,4.97
2018-11-26T18:28:33.121Z,5.28
2018-11-26T18:31:02.473Z,5.23
2018-11-26T18:33:31.787Z,5.27
2018-11-26T18:36:01.358Z,4.40
2018-11-26T18:38:30.672Z,4.97
2018-11-26T18:41:01.283Z,4.73
2018-11-26T18:43:30.658Z,4.53
2018-11-26T18:46:00.093Z,5.00
2018-11-26T18:48:29.452Z,5.07
2018-11-26T18:50:58.775Z,5.50
2018-11-26T18:53:28.096Z,7.53
2018-11-26T18:55:57.434Z,5.30
2018-11-26T18:58:26.813Z,5.13
2018-11-26T19:00:59.212Z,5.33
2018-11-26T19:03:28.537Z,7.33
2018-11-26T19:05:57.924Z,7.10
2018-11-26T19:08:27.316Z,7.17
2018-11-26T19:11:02.136Z,8.40
2018-11-26T19:13:38.015Z,8.13
2018-11-26T19:16:18.668Z,11.00
2018-11-26T19:18:48.123Z,12.03
2018-11-26T19:21:17.475Z,14.43
2018-11-26T19:23:46.901Z,13.73
2018-11-26T19:26:16.215Z,14.90
2018-11-26T19:28:45.580Z,15.87
2018-11-26T19:31:14.943Z,14.13
2018-11-26T19:33:44.360Z,11.33
2018-11-26T19:36:13.713Z,12.43
2018-11-26T19:38:43.137Z,11.80
2018-11-26T19:41:12.492Z,12.50
2018-11-26T19:43:41.836Z,12.07
2018-11-26T19:46:11.304Z,12.60
2018-11-26T19:48:40.635Z,11.37
2018-11-26T19:51:09.989Z,13.72
2018-11-26T19:53:39.345Z,12.37
2018-11-26T19:56:08.716Z,15.53
2018-11-26T19:58:38.088Z,12.53
2018-11-26T20:01:07.477Z,8.23
2018-11-26T20:03:40.608Z,9.83
2018-11-26T20:06:26.337Z,11.00
2018-11-26T20:09:00.423Z,8.70
2018-11-26T20:11:33.122Z,10.68
2018-11-26T20:13:59.438Z,5.37
2018-11-26T20:16:36.165Z,4.77
2018-11-26T20:19:06.022Z,4.30
2018-11-26T20:21:35.352Z,10.43
2018-11-26T20:24:04.767Z,4.63
2018-11-26T20:26:34.160Z,4.93
2018-11-26T20:29:03.565Z,3.73
2018-11-26T20:31:34.164Z,6.53
2018-11-26T20:34:03.555Z,8.10
2018-11-26T20:36:32.903Z,12.93
2018-11-26T20:39:02.255Z,13.57
2018-11-26T20:41:31.654Z,12.20
2018-11-26T20:44:00.959Z,16.50
2018-11-26T20:46:30.625Z,13.47
2018-11-26T20:49:00.006Z,12.60
2018-11-26T20:51:29.340Z,10.37
2018-11-26T20:54:02.781Z,8.45
2018-11-26T20:56:32.095Z,9.40
2018-11-26T20:59:01.465Z,10.63
2018-11-26T21:01:30.832Z,10.77
2018-11-26T21:04:00.231Z,7.12
2018-11-26T21:06:29.669Z,6.77
2018-11-26T21:08:59.118Z,7.50
2018-11-26T21:11:28.436Z,7.63
2018-11-26T21:13:57.789Z,7.67
2018-11-26T21:16:27.100Z,9.48
2018-11-26T21:18:56.472Z,10.57
2018-11-26T21:21:25.901Z,10.60
2018-11-26T21:23:55.266Z,10.50
2018-11-26T21:26:24.668Z,10.40
2018-11-26T21:28:54.076Z,11.70
2018-11-26T21:31:23.869Z,11.93
2018-11-26T21:33:52.860Z,11.17
2018-11-26T21:36:22.284Z,12.50
2018-11-26T21:38:51.679Z,12.70
2018-11-26T21:41:21.103Z,12.40
2018-11-26T21:43:50.520Z,14.83
2018-11-26T21:46:19.884Z,13.30
2018-11-26T21:48:49.228Z,13.53
2018-11-26T21:51:18.668Z,16.35
2018-11-26T21:53:48.183Z,13.47
2018-11-26T21:56:17.552Z,14.20
2018-11-26T21:58:46.924Z,14.37
2018-11-26T22:01:16.330Z,13.40
2018-11-26T22:03:45.695Z,13.10
2018-11-26T22:06:15.106Z,11.97
2018-11-26T22:08:44.446Z,15.50
2018-11-26T22:11:13.874Z,16.40
2018-11-26T22:13:43.221Z,12.23
2018-11-26T22:16:12.567Z,14.28
2018-11-26T22:18:41.966Z,13.37
2018-11-26T22:21:11.372Z,13.73
2018-11-26T22:23:40.762Z,12.33
2018-11-26T22:26:10.221Z,13.20
2018-11-26T22:28:39.574Z,14.93
2018-11-26T22:31:08.969Z,14.63
2018-11-26T22:33:38.304Z,10.87
2018-11-26T22:36:07.653Z,12.20
2018-11-26T22:38:37.015Z,14.20
2018-11-26T22:41:07.255Z,15.83
2018-11-26T22:43:36.660Z,15.60
2018-11-26T22:46:06.359Z,15.63
2018-11-26T22:48:35.777Z,13.53
2018-11-26T22:51:05.174Z,15.70
2018-11-26T22:53:34.564Z,17.77
2018-11-26T22:56:03.977Z,14.63
2018-11-26T22:58:33.317Z,14.23
2018-11-26T23:01:03.654Z,18.80
2018-11-26T23:03:32.287Z,15.93
2018-11-26T23:06:01.666Z,15.43
2018-11-26T23:08:31.043Z,13.67
2018-11-26T23:11:00.453Z,12.90
2018-11-26T23:13:29.832Z,11.87
2018-11-26T23:15:59.191Z,13.23
2018-11-26T23:18:29.578Z,14.63
2018-11-26T23:20:58.921Z,19.50
2018-11-26T23:23:28.292Z,16.43
2018-11-26T23:25:58.672Z,13.93
2018-11-26T23:28:28.036Z,14.87
2018-11-26T23:30:57.427Z,14.60
2018-11-26T23:33:26.817Z,14.83
2018-11-26T23:35:56.140Z,15.63
2018-11-26T23:38:26.752Z,14.40
2018-11-26T23:40:56.302Z,14.57
2018-11-26T23:43:25.697Z,15.45
2018-11-26T23:45:55.084Z,12.87
2018-11-26T23:48:24.806Z,11.33
2018-11-26T23:50:55.331Z,11.78
2018-11-26T23:53:24.712Z,9.90
2018-11-26T23:55:54.046Z,10.00
2018-11-26T23:58:23.405Z,11.13
